sensor_id;sensor_type;location;lat;lon;timestamp;P1;durP1;ratioP1;P2;durP2;ratioP2
66927;SDS011;59882;45.624;11.698;2023-02-01T00:02:02;97.70;;;53.57;;
66927;SDS011;59882;45.624;11.698;2023-02-01T00:04:28;91.43;;;50.88;;
66927;SDS011;59882;45.624;11.698;2023-02-01T00:06:54;90.67;;;49.47;;
66927;SDS011;59882;45.624;11.698;2023-02-01T00:09:19;93.53;;;51.88;;
66927;SDS011;59882;45.624;11.698;2023-02-01T00:11:45;94.83;;;51.97;;
66927;SDS011;59882;45.624;11.698;2023-02-01T00:14:11;93.35;;;50.92;;
66927;SDS011;59882;45.624;11.698;2023-02-01T00:16:36;86.13;;;47.67;;
66927;SDS011;59882;45.624;11.698;2023-02-01T00:19:04;88.22;;;49.28;;
66927;SDS011;59882;45.624;11.698;2023-02-01T00:21:32;86.43;;;46.78;;
66927;SDS011;59882;45.624;11.698;2023-02-01T00:23:58;93.87;;;49.87;;
66927;SDS011;59882;45.624;11.698;2023-02-01T00:26:34;95.75;;;50.95;;
66927;SDS011;59882;45.624;11.698;2023-02-01T00:29:05;92.25;;;49.80;;
66927;SDS011;59882;45.624;11.698;2023-02-01T00:31:35;93.43;;;48.55;;
66927;SDS011;59882;45.624;11.698;2023-02-01T00:34:00;82.73;;;45.63;;
66927;SDS011;59882;45.624;11.698;2023-02-01T00:36:26;95.80;;;49.67;;
66927;SDS011;59882;45.624;11.698;2023-02-01T00:38:52;90.30;;;49.42;;
66927;SDS011;59882;45.624;11.698;2023-02-01T00:41:19;90.93;;;48.60;;
66927;SDS011;59882;45.624;11.698;2023-02-01T00:43:45;93.00;;;49.50;;
66927;SDS011;59882;45.624;11.698;2023-02-01T00:46:13;89.45;;;47.83;;
66927;SDS011;59882;45.624;11.698;2023-02-01T00:48:40;94.03;;;49.20;;
66927;SDS011;59882;45.624;11.698;2023-02-01T00:51:08;94.57;;;48.10;;
66927;SDS011;59882;45.624;11.698;2023-02-01T00:53:36;94.10;;;50.72;;
66927;SDS011;59882;45.624;11.698;2023-02-01T00:56:02;96.93;;;51.63;;
66927;SDS011;59882;45.624;11.698;2023-02-01T00:58:28;89.38;;;48.22;;
66927;SDS011;59882;45.624;11.698;2023-02-01T01:01:03;100.05;;;51.85;;
66927;SDS011;59882;45.624;11.698;2023-02-01T01:03:46;92.97;;;48.80;;
66927;SDS011;59882;45.624;11.698;2023-02-01T01:06:17;99.90;;;48.90;;
66927;SDS011;59882;45.624;11.698;2023-02-01T01:08:46;87.38;;;47.08;;
66927;SDS011;59882;45.624;11.698;2023-02-01T01:11:17;95.55;;;48.38;;
66927;SDS011;59882;45.624;11.698;2023-02-01T01:13:45;92.20;;;49.35;;
66927;SDS011;59882;45.624;11.698;2023-02-01T01:16:13;84.03;;;45.87;;
66927;SDS011;59882;45.624;11.698;2023-02-01T01:18:39;92.10;;;48.88;;
66927;SDS011;59882;45.624;11.698;2023-02-01T01:21:05;91.45;;;46.90;;
66927;SDS011;59882;45.624;11.698;2023-02-01T01:23:32;86.10;;;47.63;;
66927;SDS011;59882;45.624;11.698;2023-02-01T01:25:59;85.85;;;46.65;;
66927;SDS011;59882;45.624;11.698;2023-02-01T01:28:25;88.77;;;47.13;;
66927;SDS011;59882;45.624;11.698;2023-02-01T01:30:51;94.57;;;49.38;;
66927;SDS011;59882;45.624;11.698;2023-02-01T01:33:16;93.63;;;48.37;;
66927;SDS011;59882;45.624;11.698;2023-02-01T01:35:42;89.45;;;47.38;;
66927;SDS011;59882;45.624;11.698;2023-02-01T01:38:08;87.97;;;46.57;;
66927;SDS011;59882;45.624;11.698;2023-02-01T01:40:35;89.07;;;46.75;;
66927;SDS011;59882;45.624;11.698;2023-02-01T01:43:01;93.85;;;48.10;;
66927;SDS011;59882;45.624;11.698;2023-02-01T01:45:29;86.23;;;47.07;;
66927;SDS011;59882;45.624;11.698;2023-02-01T01:48:07;78.78;;;43.53;;
66927;SDS011;59882;45.624;11.698;2023-02-01T01:50:48;93.70;;;50.15;;
66927;SDS011;59882;45.624;11.698;2023-02-01T01:53:20;88.70;;;47.17;;
66927;SDS011;59882;45.624;11.698;2023-02-01T01:55:48;90.20;;;47.95;;
66927;SDS011;59882;45.624;11.698;2023-02-01T01:58:17;82.90;;;45.35;;
66927;SDS011;59882;45.624;11.698;2023-02-01T02:00:44;83.53;;;44.25;;
66927;SDS011;59882;45.624;11.698;2023-02-01T02:03:21;87.35;;;45.97;;
66927;SDS011;59882;45.624;11.698;2023-02-01T02:05:50;94.80;;;47.80;;
66927;SDS011;59882;45.624;11.698;2023-02-01T02:08:18;92.32;;;48.53;;
66927;SDS011;59882;45.624;11.698;2023-02-01T02:10:48;88.65;;;47.30;;
66927;SDS011;59882;45.624;11.698;2023-02-01T02:13:31;91.72;;;47.47;;
66927;SDS011;59882;45.624;11.698;2023-02-01T02:35:33;83.75;;;43.75;;
66927;SDS011;59882;45.624;11.698;2023-02-01T02:43:38;80.28;;;42.80;;
66927;SDS011;59882;45.624;11.698;2023-02-01T02:46:38;77.87;;;40.83;;
66927;SDS011;59882;45.624;11.698;2023-02-01T02:49:29;79.47;;;42.08;;
66927;SDS011;59882;45.624;11.698;2023-02-01T02:52:29;80.78;;;41.85;;
66927;SDS011;59882;45.624;11.698;2023-02-01T02:55:15;76.95;;;41.17;;
66927;SDS011;59882;45.624;11.698;2023-02-01T02:57:41;82.65;;;42.30;;
66927;SDS011;59882;45.624;11.698;2023-02-01T03:00:28;83.10;;;42.60;;
66927;SDS011;59882;45.624;11.698;2023-02-01T03:03:15;82.00;;;41.95;;
66927;SDS011;59882;45.624;11.698;2023-02-01T03:05:59;80.13;;;41.33;;
66927;SDS011;59882;45.624;11.698;2023-02-01T03:08:27;80.22;;;40.35;;
66927;SDS011;59882;45.624;11.698;2023-02-01T03:10:58;79.57;;;40.80;;
66927;SDS011;59882;45.624;11.698;2023-02-01T03:18:50;80.65;;;41.55;;
66927;SDS011;59882;45.624;11.698;2023-02-01T03:21:19;83.72;;;41.42;;
66927;SDS011;59882;45.624;11.698;2023-02-01T03:23:50;85.43;;;41.97;;
66927;SDS011;59882;45.624;11.698;2023-02-01T03:26:18;82.93;;;42.83;;
66927;SDS011;59882;45.624;11.698;2023-02-01T03:28:52;79.50;;;40.83;;
66927;SDS011;59882;45.624;11.698;2023-02-01T03:31:32;85.57;;;41.17;;
66927;SDS011;59882;45.624;11.698;2023-02-01T03:33:58;75.53;;;40.17;;
66927;SDS011;59882;45.624;11.698;2023-02-01T03:36:25;80.22;;;41.10;;
66927;SDS011;59882;45.624;11.698;2023-02-01T03:38:58;82.07;;;41.28;;
66927;SDS011;59882;45.624;11.698;2023-02-01T03:49:40;80.07;;;41.63;;
66927;SDS011;59882;45.624;11.698;2023-02-01T03:52:10;79.47;;;41.13;;
66927;SDS011;59882;45.624;11.698;2023-02-01T03:54:39;83.33;;;41.40;;
66927;SDS011;59882;45.624;11.698;2023-02-01T03:57:07;82.20;;;40.38;;
66927;SDS011;59882;45.624;11.698;2023-02-01T03:59:43;78.75;;;40.90;;
66927;SDS011;59882;45.624;11.698;2023-02-01T04:02:10;76.88;;;39.45;;
66927;SDS011;59882;45.624;11.698;2023-02-01T04:04:36;69.68;;;39.80;;
66927;SDS011;59882;45.624;11.698;2023-02-01T04:07:02;75.60;;;39.93;;
66927;SDS011;59882;45.624;11.698;2023-02-01T04:09:28;76.00;;;40.88;;
66927;SDS011;59882;45.624;11.698;2023-02-01T04:11:54;78.40;;;40.03;;
66927;SDS011;59882;45.624;11.698;2023-02-01T04:14:19;75.37;;;38.90;;
66927;SDS011;59882;45.624;11.698;2023-02-01T04:16:45;83.63;;;41.65;;
66927;SDS011;59882;45.624;11.698;2023-02-01T04:19:11;84.40;;;40.03;;
66927;SDS011;59882;45.624;11.698;2023-02-01T04:21:36;79.80;;;43.72;;
66927;SDS011;59882;45.624;11.698;2023-02-01T04:24:02;76.53;;;40.23;;
66927;SDS011;59882;45.624;11.698;2023-02-01T04:26:28;77.90;;;41.30;;
66927;SDS011;59882;45.624;11.698;2023-02-01T04:28:54;74.67;;;41.10;;
66927;SDS011;59882;45.624;11.698;2023-02-01T04:31:19;77.43;;;41.75;;
66927;SDS011;59882;45.624;11.698;2023-02-01T04:33:52;78.35;;;41.83;;
66927;SDS011;59882;45.624;11.698;2023-02-01T04:36:19;78.53;;;39.40;;
66927;SDS011;59882;45.624;11.698;2023-02-01T04:38:46;76.22;;;39.53;;
66927;SDS011;59882;45.624;11.698;2023-02-01T04:41:13;78.65;;;39.88;;
66927;SDS011;59882;45.624;11.698;2023-02-01T04:43:40;72.25;;;39.75;;
66927;SDS011;59882;45.624;11.698;2023-02-01T04:46:06;76.03;;;40.23;;
66927;SDS011;59882;45.624;11.698;2023-02-01T04:48:31;80.60;;;43.85;;
66927;SDS011;59882;45.624;11.698;2023-02-01T04:50:57;74.70;;;37.70;;
66927;SDS011;59882;45.624;11.698;2023-02-01T04:53:23;75.97;;;38.10;;
66927;SDS011;59882;45.624;11.698;2023-02-01T04:55:48;71.80;;;38.60;;
66927;SDS011;59882;45.624;11.698;2023-02-01T04:58:15;75.28;;;38.35;;
66927;SDS011;59882;45.624;11.698;2023-02-01T05:00:41;75.32;;;38.53;;
66927;SDS011;59882;45.624;11.698;2023-02-01T05:03:06;66.83;;;37.30;;
66927;SDS011;59882;45.624;11.698;2023-02-01T05:05:32;71.73;;;38.93;;
66927;SDS011;59882;45.624;11.698;2023-02-01T05:07:58;76.38;;;38.58;;
66927;SDS011;59882;45.624;11.698;2023-02-01T05:10:23;72.57;;;37.93;;
66927;SDS011;59882;45.624;11.698;2023-02-01T05:12:49;72.63;;;38.43;;
66927;SDS011;59882;45.624;11.698;2023-02-01T05:15:33;74.45;;;38.65;;
66927;SDS011;59882;45.624;11.698;2023-02-01T05:17:59;72.97;;;35.23;;
66927;SDS011;59882;45.624;11.698;2023-02-01T05:20:25;72.80;;;39.25;;
66927;SDS011;59882;45.624;11.698;2023-02-01T05:22:50;77.00;;;38.83;;
66927;SDS011;59882;45.624;11.698;2023-02-01T05:25:16;74.65;;;38.08;;
66927;SDS011;59882;45.624;11.698;2023-02-01T05:27:42;72.63;;;38.83;;
66927;SDS011;59882;45.624;11.698;2023-02-01T05:30:08;73.10;;;37.83;;
66927;SDS011;59882;45.624;11.698;2023-02-01T05:32:34;71.60;;;37.10;;
66927;SDS011;59882;45.624;11.698;2023-02-01T05:34:59;74.40;;;37.20;;
66927;SDS011;59882;45.624;11.698;2023-02-01T05:37:25;80.53;;;38.07;;
66927;SDS011;59882;45.624;11.698;2023-02-01T05:39:51;72.82;;;37.95;;
66927;SDS011;59882;45.624;11.698;2023-02-01T05:42:17;71.63;;;37.57;;
66927;SDS011;59882;45.624;11.698;2023-02-01T05:44:42;78.97;;;39.83;;
66927;SDS011;59882;45.624;11.698;2023-02-01T05:47:08;72.90;;;37.97;;
66927;SDS011;59882;45.624;11.698;2023-02-01T05:49:34;79.50;;;40.47;;
66927;SDS011;59882;45.624;11.698;2023-02-01T05:51:59;85.67;;;43.43;;
66927;SDS011;59882;45.624;11.698;2023-02-01T05:54:25;77.78;;;40.33;;
66927;SDS011;59882;45.624;11.698;2023-02-01T05:56:51;85.57;;;43.85;;
66927;SDS011;59882;45.624;11.698;2023-02-01T05:59:17;91.87;;;49.37;;
66927;SDS011;59882;45.624;11.698;2023-02-01T06:01:43;89.33;;;45.27;;
66927;SDS011;59882;45.624;11.698;2023-02-01T06:04:08;95.80;;;50.35;;
66927;SDS011;59882;45.624;11.698;2023-02-01T06:06:34;76.97;;;40.50;;
66927;SDS011;59882;45.624;11.698;2023-02-01T06:09:02;96.60;;;52.20;;
66927;SDS011;59882;45.624;11.698;2023-02-01T06:11:27;95.82;;;48.60;;
66927;SDS011;59882;45.624;11.698;2023-02-01T06:13:53;87.65;;;45.55;;
66927;SDS011;59882;45.624;11.698;2023-02-01T06:16:20;89.10;;;42.80;;
66927;SDS011;59882;45.624;11.698;2023-02-01T06:18:46;85.18;;;43.72;;
66927;SDS011;59882;45.624;11.698;2023-02-01T06:21:12;84.25;;;43.97;;
66927;SDS011;59882;45.624;11.698;2023-02-01T06:23:39;84.13;;;41.83;;
66927;SDS011;59882;45.624;11.698;2023-02-01T06:26:05;81.72;;;42.08;;
66927;SDS011;59882;45.624;11.698;2023-02-01T06:28:34;91.57;;;44.50;;
66927;SDS011;59882;45.624;11.698;2023-02-01T06:31:06;81.33;;;41.87;;
66927;SDS011;59882;45.624;11.698;2023-02-01T06:33:35;83.72;;;41.00;;
66927;SDS011;59882;45.624;11.698;2023-02-01T06:36:02;81.53;;;40.65;;
66927;SDS011;59882;45.624;11.698;2023-02-01T06:38:30;73.07;;;37.83;;
66927;SDS011;59882;45.624;11.698;2023-02-01T06:40:56;76.28;;;39.25;;
66927;SDS011;59882;45.624;11.698;2023-02-01T06:43:23;86.43;;;39.78;;
66927;SDS011;59882;45.624;11.698;2023-02-01T06:45:50;77.68;;;39.83;;
66927;SDS011;59882;45.624;11.698;2023-02-01T06:48:16;77.63;;;39.22;;
66927;SDS011;59882;45.624;11.698;2023-02-01T06:50:42;77.37;;;38.67;;
66927;SDS011;59882;45.624;11.698;2023-02-01T06:53:08;79.18;;;42.30;;
66927;SDS011;59882;45.624;11.698;2023-02-01T06:55:34;74.78;;;39.45;;
66927;SDS011;59882;45.624;11.698;2023-02-01T06:58:00;91.87;;;45.27;;
66927;SDS011;59882;45.624;11.698;2023-02-01T07:00:27;91.47;;;43.72;;
66927;SDS011;59882;45.624;11.698;2023-02-01T07:02:53;83.57;;;41.38;;
66927;SDS011;59882;45.624;11.698;2023-02-01T07:05:19;88.30;;;42.92;;
66927;SDS011;59882;45.624;11.698;2023-02-01T07:07:46;94.53;;;43.87;;
66927;SDS011;59882;45.624;11.698;2023-02-01T07:10:11;94.55;;;44.58;;
66927;SDS011;59882;45.624;11.698;2023-02-01T07:12:37;92.88;;;44.30;;
66927;SDS011;59882;45.624;11.698;2023-02-01T07:15:03;99.80;;;46.40;;
66927;SDS011;59882;45.624;11.698;2023-02-01T07:17:30;99.47;;;46.70;;
66927;SDS011;59882;45.624;11.698;2023-02-01T07:19:56;101.20;;;43.85;;
66927;SDS011;59882;45.624;11.698;2023-02-01T07:22:23;95.87;;;43.07;;
66927;SDS011;59882;45.624;11.698;2023-02-01T07:24:49;99.38;;;44.13;;
66927;SDS011;59882;45.624;11.698;2023-02-01T07:27:14;85.53;;;42.53;;
66927;SDS011;59882;45.624;11.698;2023-02-01T07:29:40;92.18;;;43.05;;
66927;SDS011;59882;45.624;11.698;2023-02-01T07:32:05;92.27;;;43.60;;
66927;SDS011;59882;45.624;11.698;2023-02-01T07:34:31;99.30;;;46.17;;
66927;SDS011;59882;45.624;11.698;2023-02-01T07:36:57;105.68;;;50.70;;
66927;SDS011;59882;45.624;11.698;2023-02-01T07:39:23;101.15;;;47.00;;
66927;SDS011;59882;45.624;11.698;2023-02-01T07:41:49;93.23;;;44.27;;
66927;SDS011;59882;45.624;11.698;2023-02-01T07:44:14;95.80;;;45.30;;
66927;SDS011;59882;45.624;11.698;2023-02-01T07:46:40;96.10;;;43.90;;
66927;SDS011;59882;45.624;11.698;2023-02-01T07:49:08;85.65;;;44.28;;
66927;SDS011;59882;45.624;11.698;2023-02-01T07:51:33;97.73;;;44.70;;
66927;SDS011;59882;45.624;11.698;2023-02-01T07:53:59;96.93;;;44.10;;
66927;SDS011;59882;45.624;11.698;2023-02-01T07:56:25;93.20;;;43.80;;
66927;SDS011;59882;45.624;11.698;2023-02-01T07:58:51;86.55;;;44.28;;
66927;SDS011;59882;45.624;11.698;2023-02-01T08:01:20;89.93;;;44.35;;
66927;SDS011;59882;45.624;11.698;2023-02-01T08:03:51;89.40;;;46.50;;
66927;SDS011;59882;45.624;11.698;2023-02-01T08:06:28;93.18;;;45.35;;
66927;SDS011;59882;45.624;11.698;2023-02-01T08:08:56;108.40;;;50.38;;
66927;SDS011;59882;45.624;11.698;2023-02-01T08:11:22;98.30;;;48.92;;
66927;SDS011;59882;45.624;11.698;2023-02-01T08:13:48;96.87;;;49.83;;
66927;SDS011;59882;45.624;11.698;2023-02-01T08:16:15;103.78;;;50.05;;
66927;SDS011;59882;45.624;11.698;2023-02-01T08:18:41;99.32;;;49.75;;
66927;SDS011;59882;45.624;11.698;2023-02-01T08:21:08;126.67;;;60.77;;
66927;SDS011;59882;45.624;11.698;2023-02-01T08:23:36;106.18;;;54.38;;
66927;SDS011;59882;45.624;11.698;2023-02-01T08:26:24;104.00;;;52.83;;
66927;SDS011;59882;45.624;11.698;2023-02-01T08:28:51;106.45;;;54.42;;
66927;SDS011;59882;45.624;11.698;2023-02-01T08:31:20;106.88;;;55.17;;
66927;SDS011;59882;45.624;11.698;2023-02-01T08:33:48;112.57;;;55.30;;
66927;SDS011;59882;45.624;11.698;2023-02-01T08:36:15;111.82;;;57.13;;
66927;SDS011;59882;45.624;11.698;2023-02-01T08:38:41;106.45;;;53.17;;
66927;SDS011;59882;45.624;11.698;2023-02-01T08:41:07;102.57;;;51.53;;
66927;SDS011;59882;45.624;11.698;2023-02-01T08:43:35;99.05;;;49.92;;
66927;SDS011;59882;45.624;11.698;2023-02-01T08:46:01;94.10;;;48.55;;
66927;SDS011;59882;45.624;11.698;2023-02-01T08:48:27;85.53;;;44.80;;
66927;SDS011;59882;45.624;11.698;2023-02-01T08:50:52;90.80;;;43.50;;
66927;SDS011;59882;45.624;11.698;2023-02-01T08:53:18;88.83;;;42.20;;
66927;SDS011;59882;45.624;11.698;2023-02-01T08:55:45;91.60;;;43.30;;
66927;SDS011;59882;45.624;11.698;2023-02-01T08:58:12;87.43;;;44.13;;
66927;SDS011;59882;45.624;11.698;2023-02-01T09:00:38;87.68;;;44.60;;
66927;SDS011;59882;45.624;11.698;2023-02-01T09:03:05;78.77;;;40.90;;
66927;SDS011;59882;45.624;11.698;2023-02-01T09:05:30;90.88;;;43.28;;
66927;SDS011;59882;45.624;11.698;2023-02-01T09:07:56;93.67;;;42.40;;
66927;SDS011;59882;45.624;11.698;2023-02-01T09:10:22;91.68;;;42.92;;
66927;SDS011;59882;45.624;11.698;2023-02-01T09:12:47;84.77;;;40.50;;
66927;SDS011;59882;45.624;11.698;2023-02-01T09:15:13;90.15;;;45.00;;
66927;SDS011;59882;45.624;11.698;2023-02-01T09:17:39;88.83;;;44.80;;
66927;SDS011;59882;45.624;11.698;2023-02-01T09:20:06;86.15;;;42.20;;
66927;SDS011;59882;45.624;11.698;2023-02-01T09:22:33;85.40;;;42.75;;
66927;SDS011;59882;45.624;11.698;2023-02-01T09:24:59;90.13;;;44.07;;
66927;SDS011;59882;45.624;11.698;2023-02-01T09:27:25;87.28;;;44.15;;
66927;SDS011;59882;45.624;11.698;2023-02-01T09:29:51;89.10;;;45.17;;
66927;SDS011;59882;45.624;11.698;2023-02-01T09:32:21;90.35;;;45.58;;
66927;SDS011;59882;45.624;11.698;2023-02-01T09:34:48;87.45;;;44.63;;
66927;SDS011;59882;45.624;11.698;2023-02-01T09:37:14;83.32;;;42.63;;
66927;SDS011;59882;45.624;11.698;2023-02-01T09:39:40;91.13;;;47.33;;
66927;SDS011;59882;45.624;11.698;2023-02-01T09:42:16;93.85;;;46.97;;
66927;SDS011;59882;45.624;11.698;2023-02-01T09:47:35;93.20;;;45.60;;
66927;SDS011;59882;45.624;11.698;2023-02-01T09:50:08;87.33;;;43.63;;
66927;SDS011;59882;45.624;11.698;2023-02-01T09:52:46;95.93;;;47.10;;
66927;SDS011;59882;45.624;11.698;2023-02-01T09:55:21;93.20;;;47.05;;
66927;SDS011;59882;45.624;11.698;2023-02-01T09:58:16;104.13;;;49.40;;
66927;SDS011;59882;45.624;11.698;2023-02-01T10:01:23;95.25;;;47.60;;
66927;SDS011;59882;45.624;11.698;2023-02-01T10:03:51;95.73;;;49.97;;
66927;SDS011;59882;45.624;11.698;2023-02-01T10:17:30;97.10;;;51.67;;
66927;SDS011;59882;45.624;11.698;2023-02-01T10:23:06;102.20;;;52.85;;
66927;SDS011;59882;45.624;11.698;2023-02-01T10:25:51;103.35;;;53.33;;
66927;SDS011;59882;45.624;11.698;2023-02-01T10:28:19;102.32;;;52.33;;
66927;SDS011;59882;45.624;11.698;2023-02-01T10:30:48;104.60;;;54.63;;
66927;SDS011;59882;45.624;11.698;2023-02-01T10:33:16;103.45;;;53.60;;
66927;SDS011;59882;45.624;11.698;2023-02-01T10:35:42;103.32;;;53.10;;
66927;SDS011;59882;45.624;11.698;2023-02-01T10:38:24;101.25;;;53.03;;
66927;SDS011;59882;45.624;11.698;2023-02-01T10:40:53;102.57;;;51.58;;
66927;SDS011;59882;45.624;11.698;2023-02-01T10:43:23;98.30;;;52.30;;
66927;SDS011;59882;45.624;11.698;2023-02-01T10:45:49;101.85;;;53.65;;
66927;SDS011;59882;45.624;11.698;2023-02-01T10:48:15;99.47;;;53.27;;
66927;SDS011;59882;45.624;11.698;2023-02-01T10:53:44;94.55;;;52.03;;
66927;SDS011;59882;45.624;11.698;2023-02-01T10:56:14;92.38;;;50.63;;
66927;SDS011;59882;45.624;11.698;2023-02-01T10:58:46;98.47;;;49.83;;
66927;SDS011;59882;45.624;11.698;2023-02-01T11:01:20;96.10;;;52.58;;
66927;SDS011;59882;45.624;11.698;2023-02-01T11:06:32;96.00;;;52.78;;
66927;SDS011;59882;45.624;11.698;2023-02-01T11:11:56;93.40;;;50.47;;
66927;SDS011;59882;45.624;11.698;2023-02-01T11:16:50;92.90;;;48.90;;
66927;SDS011;59882;45.624;11.698;2023-02-01T11:19:18;100.80;;;52.38;;
66927;SDS011;59882;45.624;11.698;2023-02-01T11:21:44;98.15;;;54.00;;
66927;SDS011;59882;45.624;11.698;2023-02-01T11:24:21;93.95;;;51.25;;
66927;SDS011;59882;45.624;11.698;2023-02-01T11:26:48;94.00;;;52.20;;
66927;SDS011;59882;45.624;11.698;2023-02-01T11:29:15;93.80;;;51.60;;
66927;SDS011;59882;45.624;11.698;2023-02-01T11:31:44;97.07;;;51.97;;
66927;SDS011;59882;45.624;11.698;2023-02-01T11:34:18;91.53;;;52.05;;
66927;SDS011;59882;45.624;11.698;2023-02-01T11:36:48;95.10;;;52.65;;
66927;SDS011;59882;45.624;11.698;2023-02-01T11:39:25;93.97;;;52.67;;
66927;SDS011;59882;45.624;11.698;2023-02-01T11:44:32;98.03;;;54.08;;
66927;SDS011;59882;45.624;11.698;2023-02-01T11:50:05;91.65;;;50.75;;
66927;SDS011;59882;45.624;11.698;2023-02-01T12:01:05;88.37;;;50.10;;
66927;SDS011;59882;45.624;11.698;2023-02-01T12:06:12;88.72;;;50.80;;
66927;SDS011;59882;45.624;11.698;2023-02-01T12:42:41;74.33;;;47.17;;
66927;SDS011;59882;45.624;11.698;2023-02-01T12:47:53;74.18;;;50.35;;
66927;SDS011;59882;45.624;11.698;2023-02-01T12:50:33;78.28;;;54.25;;
66927;SDS011;59882;45.624;11.698;2023-02-01T12:53:16;77.20;;;51.08;;
66927;SDS011;59882;45.624;11.698;2023-02-01T12:55:55;68.33;;;47.57;;
66927;SDS011;59882;45.624;11.698;2023-02-01T12:58:33;67.63;;;49.45;;
66927;SDS011;59882;45.624;11.698;2023-02-01T13:01:54;68.32;;;48.47;;
66927;SDS011;59882;45.624;11.698;2023-02-01T13:09:56;56.23;;;42.77;;
66927;SDS011;59882;45.624;11.698;2023-02-01T13:12:36;65.07;;;48.72;;
66927;SDS011;59882;45.624;11.698;2023-02-01T13:15:13;65.78;;;48.20;;
66927;SDS011;59882;45.624;11.698;2023-02-01T13:17:46;65.38;;;48.38;;
66927;SDS011;59882;45.624;11.698;2023-02-01T13:20:30;67.38;;;48.85;;
66927;SDS011;59882;45.624;11.698;2023-02-01T13:25:51;55.35;;;41.08;;
66927;SDS011;59882;45.624;11.698;2023-02-01T13:28:24;67.35;;;49.47;;
66927;SDS011;59882;45.624;11.698;2023-02-01T13:41:49;65.20;;;47.38;;
66927;SDS011;59882;45.624;11.698;2023-02-01T13:47:00;58.30;;;41.75;;
66927;SDS011;59882;45.624;11.698;2023-02-01T13:49:28;67.53;;;49.80;;
66927;SDS011;59882;45.624;11.698;2023-02-01T13:51:58;62.80;;;47.42;;
66927;SDS011;59882;45.624;11.698;2023-02-01T13:54:25;66.00;;;47.22;;
66927;SDS011;59882;45.624;11.698;2023-02-01T13:56:53;64.72;;;48.85;;
66927;SDS011;59882;45.624;11.698;2023-02-01T13:59:36;64.68;;;47.05;;
66927;SDS011;59882;45.624;11.698;2023-02-01T14:05:02;68.47;;;49.88;;
66927;SDS011;59882;45.624;11.698;2023-02-01T14:07:28;68.72;;;50.08;;
66927;SDS011;59882;45.624;11.698;2023-02-01T14:09:53;63.80;;;47.17;;
66927;SDS011;59882;45.624;11.698;2023-02-01T14:15:24;70.45;;;51.33;;
66927;SDS011;59882;45.624;11.698;2023-02-01T14:17:51;70.25;;;49.63;;
66927;SDS011;59882;45.624;11.698;2023-02-01T14:20:36;67.82;;;50.88;;
66927;SDS011;59882;45.624;11.698;2023-02-01T14:23:17;79.73;;;51.30;;
66927;SDS011;59882;45.624;11.698;2023-02-01T14:25:46;68.65;;;47.72;;
66927;SDS011;59882;45.624;11.698;2023-02-01T14:28:25;75.07;;;52.15;;
66927;SDS011;59882;45.624;11.698;2023-02-01T14:30:53;77.10;;;53.13;;
66927;SDS011;59882;45.624;11.698;2023-02-01T14:33:22;77.63;;;52.22;;
66927;SDS011;59882;45.624;11.698;2023-02-01T14:36:10;77.67;;;54.23;;
66927;SDS011;59882;45.624;11.698;2023-02-01T14:38:38;78.57;;;53.83;;
66927;SDS011;59882;45.624;11.698;2023-02-01T14:41:15;79.68;;;53.95;;
66927;SDS011;59882;45.624;11.698;2023-02-01T14:43:50;76.80;;;52.92;;
66927;SDS011;59882;45.624;11.698;2023-02-01T14:49:56;86.50;;;54.73;;
66927;SDS011;59882;45.624;11.698;2023-02-01T14:52:28;83.47;;;55.05;;
66927;SDS011;59882;45.624;11.698;2023-02-01T14:55:00;90.38;;;56.35;;
66927;SDS011;59882;45.624;11.698;2023-02-01T14:57:31;87.35;;;55.80;;
66927;SDS011;59882;45.624;11.698;2023-02-01T15:00:05;92.82;;;56.95;;
66927;SDS011;59882;45.624;11.698;2023-02-01T15:02:53;94.53;;;57.57;;
66927;SDS011;59882;45.624;11.698;2023-02-01T15:05:29;98.55;;;57.20;;
66927;SDS011;59882;45.624;11.698;2023-02-01T15:07:58;87.47;;;55.45;;
66927;SDS011;59882;45.624;11.698;2023-02-01T15:10:32;97.43;;;59.60;;
66927;SDS011;59882;45.624;11.698;2023-02-01T15:13:04;97.05;;;60.08;;
66927;SDS011;59882;45.624;11.698;2023-02-01T15:15:30;94.57;;;58.27;;
66927;SDS011;59882;45.624;11.698;2023-02-01T15:18:01;98.85;;;59.15;;
66927;SDS011;59882;45.624;11.698;2023-02-01T15:20:27;98.63;;;60.03;;
66927;SDS011;59882;45.624;11.698;2023-02-01T15:22:56;97.63;;;58.45;;
66927;SDS011;59882;45.624;11.698;2023-02-01T15:25:27;93.38;;;55.15;;
66927;SDS011;59882;45.624;11.698;2023-02-01T15:27:55;95.43;;;57.78;;
66927;SDS011;59882;45.624;11.698;2023-02-01T15:30:23;94.13;;;57.93;;
66927;SDS011;59882;45.624;11.698;2023-02-01T15:32:52;97.47;;;59.17;;
66927;SDS011;59882;45.624;11.698;2023-02-01T15:35:41;98.80;;;58.25;;
66927;SDS011;59882;45.624;11.698;2023-02-01T15:46:33;93.28;;;57.05;;
66927;SDS011;59882;45.624;11.698;2023-02-01T15:49:15;103.55;;;59.28;;
66927;SDS011;59882;45.624;11.698;2023-02-01T15:51:43;97.72;;;56.92;;
66927;SDS011;59882;45.624;11.698;2023-02-01T15:54:18;102.28;;;58.05;;
66927;SDS011;59882;45.624;11.698;2023-02-01T15:56:49;93.20;;;56.63;;
66927;SDS011;59882;45.624;11.698;2023-02-01T15:59:22;96.05;;;58.00;;
66927;SDS011;59882;45.624;11.698;2023-02-01T16:01:50;91.68;;;55.60;;
66927;SDS011;59882;45.624;11.698;2023-02-01T16:04:17;100.97;;;56.25;;
66927;SDS011;59882;45.624;11.698;2023-02-01T16:06:49;101.32;;;57.75;;
66927;SDS011;59882;45.624;11.698;2023-02-01T16:09:22;98.97;;;56.47;;
66927;SDS011;59882;45.624;11.698;2023-02-01T16:11:54;98.10;;;57.38;;
66927;SDS011;59882;45.624;11.698;2023-02-01T16:14:24;98.93;;;56.42;;
66927;SDS011;59882;45.624;11.698;2023-02-01T16:16:51;108.25;;;60.13;;
66927;SDS011;59882;45.624;11.698;2023-02-01T16:19:19;101.47;;;58.22;;
66927;SDS011;59882;45.624;11.698;2023-02-01T16:21:46;96.10;;;56.83;;
66927;SDS011;59882;45.624;11.698;2023-02-01T16:24:11;105.95;;;59.40;;
66927;SDS011;59882;45.624;11.698;2023-02-01T16:26:37;106.53;;;59.70;;
66927;SDS011;59882;45.624;11.698;2023-02-01T16:29:03;115.63;;;61.07;;
66927;SDS011;59882;45.624;11.698;2023-02-01T16:31:33;112.22;;;61.58;;
66927;SDS011;59882;45.624;11.698;2023-02-01T16:34:00;107.47;;;59.55;;
66927;SDS011;59882;45.624;11.698;2023-02-01T16:36:26;105.25;;;57.60;;
66927;SDS011;59882;45.624;11.698;2023-02-01T16:38:53;104.17;;;57.80;;
66927;SDS011;59882;45.624;11.698;2023-02-01T16:41:20;104.22;;;59.33;;
66927;SDS011;59882;45.624;11.698;2023-02-01T16:43:56;100.50;;;58.35;;
66927;SDS011;59882;45.624;11.698;2023-02-01T16:46:25;107.82;;;59.10;;
66927;SDS011;59882;45.624;11.698;2023-02-01T16:48:55;112.82;;;61.67;;
66927;SDS011;59882;45.624;11.698;2023-02-01T16:51:23;111.07;;;62.97;;
66927;SDS011;59882;45.624;11.698;2023-02-01T16:53:51;115.53;;;61.10;;
66927;SDS011;59882;45.624;11.698;2023-02-01T16:56:28;114.38;;;60.88;;
66927;SDS011;59882;45.624;11.698;2023-02-01T16:58:56;124.05;;;64.68;;
66927;SDS011;59882;45.624;11.698;2023-02-01T17:01:22;120.37;;;61.30;;